createdAt,value
2022-10-30T00:04:16.326Z,101106.81
2022-10-30T00:14:37.674Z,101107.69
2022-10-30T00:24:59.026Z,101106.19
2022-10-30T00:35:20.350Z,101094.88
2022-10-30T00:45:41.681Z,101096.56
2022-10-30T00:56:06.014Z,101093.66
2022-10-30T01:06:28.842Z,101086.09
2022-10-30T01:16:53.292Z,101097.81
2022-10-30T01:27:20.841Z,101096.75
2022-10-30T01:38:11.742Z,101097.28
2022-10-30T01:48:33.072Z,101105.66
2022-10-30T01:59:01.431Z,101098.88
2022-10-30T02:09:22.794Z,101093.06
2022-10-30T02:19:44.776Z,101102.44
2022-10-30T02:30:06.877Z,101098.09
2022-10-30T02:40:28.415Z,101103.72
2022-10-30T02:50:49.766Z,101113.44
2022-10-30T03:01:12.131Z,101106.13
2022-10-30T03:11:34.393Z,101111.38
2022-10-30T03:21:55.777Z,101120.16
2022-10-30T03:32:17.177Z,101127.41
2022-10-30T03:42:41.747Z,101122.56
2022-10-30T03:53:03.465Z,101114.94
2022-10-30T04:03:24.809Z,101116.06
2022-10-30T04:13:46.144Z,101116.13
2022-10-30T04:24:07.604Z,101119.16
2022-10-30T04:34:29.025Z,101113.28
2022-10-30T04:44:50.335Z,101108.50
2022-10-30T04:55:11.960Z,101103.56
2022-10-30T05:05:33.547Z,101120.84
2022-10-30T05:15:55.513Z,101128.41
2022-10-30T05:26:16.865Z,101129.53
2022-10-30T05:36:38.209Z,101130.03
2022-10-30T05:46:59.522Z,101138.59
2022-10-30T05:57:20.937Z,101129.38
2022-10-30T06:07:42.257Z,101126.09
2022-10-30T06:18:03.735Z,101148.03
2022-10-30T06:28:25.077Z,101142.22
2022-10-30T06:38:46.427Z,101159.88
2022-10-30T06:49:07.751Z,101167.47
2022-10-30T06:59:29.063Z,101164.03
2022-10-30T07:09:50.441Z,101173.88
2022-10-30T07:20:11.749Z,101185.66
2022-10-30T07:30:33.116Z,101201.19
2022-10-30T07:40:54.518Z,101197.94
2022-10-30T07:51:15.940Z,101203.72
2022-10-30T08:01:37.390Z,101207.28
2022-10-30T08:11:58.804Z,101206.47
2022-10-30T08:22:20.131Z,101220.06
2022-10-30T08:32:41.437Z,101213.50
2022-10-30T08:43:02.763Z,101218.13
2022-10-30T08:53:24.446Z,101222.00
2022-10-30T09:03:46.200Z,101216.09
2022-10-30T09:14:07.529Z,101210.56
2022-10-30T09:24:28.854Z,101200.03
2022-10-30T09:34:50.202Z,101203.53
2022-10-30T09:45:29.320Z,101201.28
2022-10-30T09:55:57.492Z,101214.91
2022-10-30T10:06:20.223Z,101231.47
2022-10-30T10:16:43.472Z,101212.94
2022-10-30T10:27:04.828Z,101215.31
2022-10-30T10:37:29.168Z,101211.31
2022-10-30T10:48:02.171Z,101223.59
2022-10-30T10:58:27.144Z,101215.91
2022-10-30T11:08:49.241Z,101201.38
2022-10-30T11:19:10.688Z,101191.44
2022-10-30T11:29:32.156Z,101189.13
2022-10-30T11:40:11.973Z,101199.78
2022-10-30T11:50:33.335Z,101218.00
2022-10-30T12:01:00.799Z,101205.16
2022-10-30T12:11:27.300Z,101192.50
2022-10-30T12:21:50.358Z,101184.16
2022-10-30T12:32:16.335Z,101158.44
2022-10-30T12:42:39.959Z,101177.06
2022-10-30T12:53:21.678Z,101177.06
2022-10-30T13:03:51.338Z,101181.19
2022-10-30T13:14:16.170Z,101163.78
2022-10-30T13:24:37.496Z,101155.88
2022-10-30T13:35:15.748Z,101140.19
2022-10-30T13:45:57.985Z,101136.31
2022-10-30T13:56:21.894Z,101121.88
2022-10-30T14:06:43.206Z,101131.38
2022-10-30T14:17:15.053Z,101138.41
2022-10-30T14:27:36.535Z,101130.66
2022-10-30T14:37:58.464Z,101133.03
2022-10-30T14:48:45.816Z,101138.16
2022-10-30T14:59:13.280Z,101122.78
2022-10-30T15:09:43.848Z,101128.16
2022-10-30T15:20:07.531Z,101127.69
2022-10-30T15:30:28.936Z,101139.81
2022-10-30T15:40:51.227Z,101132.94
2022-10-30T15:51:17.086Z,101133.06
2022-10-30T16:01:45.843Z,101128.69
2022-10-30T16:12:11.926Z,101125.97
2022-10-30T16:22:36.197Z,101118.31
2022-10-30T16:32:58.505Z,101129.56
2022-10-30T16:43:31.083Z,101136.22
2022-10-30T16:53:52.751Z,101140.53
2022-10-30T17:04:16.018Z,101149.59
2022-10-30T17:14:41.656Z,101158.63
2022-10-30T17:25:14.575Z,101180.53
2022-10-30T17:35:35.951Z,101176.75
2022-10-30T17:45:57.952Z,101184.31
2022-10-30T17:56:21.501Z,101190.34
2022-10-30T18:06:43.454Z,101198.69
2022-10-30T18:17:04.972Z,101191.28
2022-10-30T18:27:26.322Z,101194.03
2022-10-30T18:37:47.675Z,101211.28
2022-10-30T18:48:09.040Z,101229.22
2022-10-30T18:58:30.450Z,101231.44
2022-10-30T19:08:51.922Z,101239.84
2022-10-30T19:19:14.997Z,101247.41
2022-10-30T19:29:36.621Z,101242.63
2022-10-30T19:39:59.338Z,101253.97
2022-10-30T19:50:20.855Z,101259.22
2022-10-30T20:00:44.016Z,101241.09
2022-10-30T20:11:05.508Z,101256.81
2022-10-30T20:21:27.264Z,101242.56
2022-10-30T20:31:48.591Z,101250.63
2022-10-30T20:42:11.621Z,101254.09
2022-10-30T20:52:32.942Z,101291.31
2022-10-30T21:02:54.264Z,101301.13
2022-10-30T21:13:15.586Z,101314.31
2022-10-30T21:23:37.081Z,101310.75
2022-10-30T21:33:58.435Z,101301.66
2022-10-30T21:44:19.762Z,101319.69
2022-10-30T21:54:41.113Z,101326.47
2022-10-30T22:05:02.501Z,101350.69
2022-10-30T22:15:23.832Z,101350.38
2022-10-30T22:25:53.153Z,101363.25
2022-10-30T22:36:24.666Z,101363.78
2022-10-30T22:46:46.072Z,101380.00
2022-10-30T22:57:07.395Z,101383.47
2022-10-30T23:07:28.759Z,101393.06
2022-10-30T23:17:50.209Z,101395.63
2022-10-30T23:28:11.605Z,101399.03
2022-10-30T23:38:32.995Z,101418.88
2022-10-30T23:48:54.983Z,101407.41
2022-10-30T23:59:16.318Z,101421.13
